Airfield :
LOGIN :

Register | Disclaimer

   EN    FR    IT 

 










Legend :    VFR   Marginal VFR   IFR   Intensive IFR   Very Intensive IFR
Visi :
Ceiling :
>= 8 km
>= 3000ft
5 to 8 km
1000 to 3000 ft
1500m to 5 km
500 to 1000 ft
800 to 1500m
200 to 500 ft
< 800m
< 200 ft
Symbols :   Thunderstorms  Fog  Heavy snow  Heavy precipitations  Wind > 20 kt
SIGMETs :     Misc.  Thunderstorms  Icing  Turbulence  Mountain Waves  Volcanic Ashes






- Airport Elevation : 39 ft
- IATA code : TRS


LIPQ - Friuli Venezia Giulia Apt. Trieste

CURRENT METAR :
  • 020150Z AUTO VRB02KT 9999 -RA OVC041/// 07/04 Q1019

EXPIRED METARs :
  • 020120Z AUTO 06003KT 010V140 9999 -RA OVC042/// 07/03 Q1019
  • 020050Z AUTO 06004KT 9999 -RA OVC042/// 07/03 Q1019
  • 020020Z AUTO 08006KT 040V110 9999 -RA OVC042/// 07/03 Q1019
  • 012350Z AUTO 07007KT 030V100 9999 -RA OVC042/// 07/03 Q1019
  • 012320Z AUTO 06008KT 020V090 9999 -RA OVC044/// 08/03 Q1019

TAF TAF LIPQ
Valid from the 02 at 00:00 until the 03 at 00:00 UTC


012300Z 0200/0224 08009KT 9999 SCT030 BKN060
TEMPO 0200/0210 RA



MET'MAP, your aeronautical weather chart ! - Copyright ORBIFLY December 2007 - Disclaimer

ORBIFLY MET'MAP TEAM :

Programming & Development : Alexandra Zaïnal
Original concept : Baudouin d'Aumeries
Technical & hardware support : Manuel Goepfert
Assistance : Marc-Olivier Méhu




SOURCES & CREDITS :

   NOAA